Time;durP1;ratioP1;P1;durP2;ratioP2;P2;SDS_P1;SDS_P2;PMS_P1;PMS_P2;Temp;Humidity;BMP_temperature;BMP_pressure;BME280_temperature;BME280_humidity;BME280_pressure;Samples;Min_cycle;Max_cycle;Signal;HPM_P1;HPM_P2
2023/09/18 00:00:09;;;;;;;;;;;23.10;59.90;;;;;;1572925;74;785;-68
2023/09/18 00:02:09;;;;;;;;;;;23.10;59.90;;;;;;1568211;74;1938;-67
2023/09/18 00:04:10;;;;;;;;;;;23.00;59.80;;;;;;1570436;74;686;-68
2023/09/18 00:06:12;;;;;;;;;;;23.10;60.00;;;;;;1570154;74;700;-67
2023/09/18 00:08:14;;;;;;;;;;;23.10;60.00;;;;;;1566804;74;1118;-67
2023/09/18 00:10:16;;;;;;;;;;;23.10;59.90;;;;;;1564304;74;670;-68
2023/09/18 00:12:18;;;;;;;;;;;23.10;60.00;;;;;;1570245;74;721;-67
2023/09/18 00:14:20;;;;;;;;;;;23.10;60.00;;;;;;1563624;74;765;-68
2023/09/18 00:16:22;;;;;;;;;;;23.00;59.80;;;;;;1566175;74;855;-68
2023/09/18 00:18:24;;;;;;;;;;;23.00;59.90;;;;;;1573687;74;1944;-68
2023/09/18 00:20:26;;;;;;;;;;;23.10;60.10;;;;;;1568119;74;776;-67
2023/09/18 00:22:28;;;;;;;;;;;23.10;60.10;;;;;;1568224;74;755;-67
2023/09/18 00:24:30;;;;;;;;;;;23.00;60.00;;;;;;1564839;74;630;-68
2023/09/18 00:26:32;;;;;;;;;;;23.10;60.10;;;;;;1570030;74;811;-68
2023/09/18 00:28:34;;;;;;;;;;;23.10;60.10;;;;;;1564119;74;1149;-67
2023/09/18 00:30:38;;;;;;;;;;;23.00;60.00;;;;;;1563734;74;775;-68
2023/09/18 00:32:40;;;;;;;;;;;23.10;60.20;;;;;;1560008;74;637;-68
2023/09/18 00:34:42;;;;;;;;;;;23.10;60.20;;;;;;1572349;74;751;-67
2023/09/18 00:36:44;;;;;;;;;;;23.10;60.20;;;;;;1557721;74;730;-67
2023/09/18 00:38:47;;;;;;;;;;;23.10;60.20;;;;;;1563444;74;1916;-66
2023/09/18 00:40:49;;;;;;;;;;;23.10;60.30;;;;;;1569482;74;763;-68
2023/09/18 00:42:51;;;;;;;;;;;23.10;60.20;;;;;;1565436;74;738;-67
2023/09/18 00:44:53;;;;;;;;;;;23.10;60.30;;;;;;1566812;74;722;-67
2023/09/18 00:46:55;;;;;;;;;;;23.10;60.20;;;;;;1560789;74;654;-67
2023/09/18 00:48:57;;;;;;;;;;;23.00;60.20;;;;;;1574050;74;1831;-67
2023/09/18 00:50:59;;;;;;;;;;;23.10;60.30;;;;;;1568834;74;820;-68
2023/09/18 00:53:01;;;;;;;;;;;23.10;60.30;;;;;;1574709;74;724;-68
2023/09/18 00:55:03;;;;;;;;;;;23.10;60.30;;;;;;1567915;74;742;-67
2023/09/18 00:57:05;;;;;;;;;;;23.10;60.20;;;;;;1569800;74;752;-67
2023/09/18 00:59:07;;;;;;;;;;;23.10;60.30;;;;;;1567890;74;1936;-67
2023/09/18 01:01:09;;;;;;;;;;;23.00;60.10;;;;;;1562945;74;690;-68
2023/09/18 01:03:11;;;;;;;;;;;23.10;60.30;;;;;;1563141;74;773;-67
2023/09/18 01:05:16;;;;;;;;;;;23.00;60.20;;;;;;1563607;74;700;-68
2023/09/18 01:07:17;;;;;;;;;;;23.10;60.30;;;;;;1564079;74;1657;-67
2023/09/18 01:09:19;;;;;;;;;;;23.00;60.20;;;;;;1564867;74;721;-67
2023/09/18 01:11:28;;;;;;;;;;;23.10;60.30;;;;;;1567124;74;701;-66
2023/09/18 01:13:38;;;;;;;;;;;23.10;60.40;;;;;;1565517;74;716;-68
2023/09/18 01:15:44;;;;;;;;;;;23.10;60.40;;;;;;1560334;74;790;-68
2023/09/18 01:17:46;;;;;;;;;;;23.00;60.30;;;;;;1563566;74;1141;-68
2023/09/18 01:19:48;;;;;;;;;;;23.00;60.30;;;;;;1568944;74;1887;-68
2023/09/18 01:21:50;;;;;;;;;;;23.10;60.40;;;;;;1570026;74;679;-64
2023/09/18 01:23:52;;;;;;;;;;;23.10;60.30;;;;;;1561204;75;721;-66
2023/09/18 01:25:54;;;;;;;;;;;23.10;60.40;;;;;;1569170;74;796;-68
2023/09/18 01:27:56;;;;;;;;;;;23.10;60.40;;;;;;1564608;74;1149;-68
2023/09/18 01:29:57;;;;;;;;;;;23.00;60.30;;;;;;1563820;74;710;-67
2023/09/18 01:31:59;;;;;;;;;;;23.10;60.50;;;;;;1569679;74;654;-68
2023/09/18 01:34:01;;;;;;;;;;;23.00;60.30;;;;;;1570307;74;717;-67
2023/09/18 01:36:03;;;;;;;;;;;23.00;60.30;;;;;;1569463;74;800;-66
2023/09/18 01:38:06;;;;;;;;;;;23.00;60.30;;;;;;1557977;74;1957;-67
2023/09/18 01:40:08;;;;;;;;;;;23.10;60.50;;;;;;1562632;74;810;-67
2023/09/18 01:42:10;;;;;;;;;;;23.00;60.40;;;;;;1567592;74;777;-67
2023/09/18 01:44:12;;;;;;;;;;;23.10;60.60;;;;;;1561718;74;1561;-67
2023/09/18 01:46:14;;;;;;;;;;;23.00;60.50;;;;;;1569192;74;719;-67
2023/09/18 01:48:16;;;;;;;;;;;23.00;60.50;;;;;;1564497;74;1112;-66
2023/09/18 01:50:18;;;;;;;;;;;23.00;60.40;;;;;;1561278;74;688;-66
2023/09/18 01:52:20;;;;;;;;;;;23.00;60.40;;;;;;1563912;74;744;-68
2023/09/18 01:54:23;;;;;;;;;;;23.00;60.50;;;;;;1565282;74;774;-67
2023/09/18 01:56:24;;;;;;;;;;;23.10;60.50;;;;;;1564381;74;724;-68
2023/09/18 01:58:26;;;;;;;;;;;23.00;60.50;;;;;;1569356;74;1930;-67
2023/09/18 02:00:28;;;;;;;;;;;23.00;60.50;;;;;;1575121;74;809;-66
2023/09/18 02:02:30;;;;;;;;;;;23.00;60.40;;;;;;1570419;74;667;-67
2023/09/18 02:04:32;;;;;;;;;;;23.00;60.40;;;;;;1566955;74;735;-68
2023/09/18 02:06:34;;;;;;;;;;;23.10;60.50;;;;;;1537422;76;859;-68
2023/09/18 02:08:36;;;;;;;;;;;23.00;60.40;;;;;;1521755;76;1188;-67
2023/09/18 02:10:38;;;;;;;;;;;23.00;60.40;;;;;;1505073;77;736;-68
2023/09/18 02:12:39;;;;;;;;;;;23.10;60.50;;;;;;1529083;76;772;-67
2023/09/18 02:14:42;;;;;;;;;;;23.00;60.50;;;;;;1501951;77;742;-68
2023/09/18 02:16:45;;;;;;;;;;;23.00;60.40;;;;;;1538311;76;808;-67
2023/09/18 02:18:47;;;;;;;;;;;23.00;60.40;;;;;;1522996;76;1936;-68
2023/09/18 02:20:49;;;;;;;;;;;23.00;60.40;;;;;;1526508;76;802;-68
2023/09/18 02:22:51;;;;;;;;;;;23.00;60.40;;;;;;1508919;77;793;-67
2023/09/18 02:24:53;;;;;;;;;;;23.00;60.40;;;;;;1531065;76;737;-68
2023/09/18 02:26:55;;;;;;;;;;;23.00;60.40;;;;;;1505080;77;783;-68
2023/09/18 02:28:59;;;;;;;;;;;23.00;60.40;;;;;;1535640;76;1264;-68
2023/09/18 02:31:00;;;;;;;;;;;23.00;60.30;;;;;;1508592;78;778;-66
2023/09/18 02:33:05;;;;;;;;;;;23.00;60.30;;;;;;1539626;76;719;-67
2023/09/18 02:35:07;;;;;;;;;;;23.00;60.30;;;;;;1536820;76;779;-68
2023/09/18 02:37:09;;;;;;;;;;;23.00;60.30;;;;;;1539252;76;1163;-68
2023/09/18 02:39:11;;;;;;;;;;;23.00;60.30;;;;;;1505562;77;1953;-68
2023/09/18 02:41:13;;;;;;;;;;;23.00;60.20;;;;;;1529895;76;1535;-67
2023/09/18 02:43:14;;;;;;;;;;;23.00;60.20;;;;;;1521716;76;727;-67
2023/09/18 02:45:16;;;;;;;;;;;23.00;60.20;;;;;;1513905;77;612;-68
2023/09/18 02:47:18;;;;;;;;;;;23.00;60.20;;;;;;1515863;78;1093;-67
2023/09/18 02:49:20;;;;;;;;;;;23.00;60.20;;;;;;1532383;76;760;-67
2023/09/18 02:51:23;;;;;;;;;;;23.00;60.10;;;;;;1503979;77;749;-69
2023/09/18 02:53:25;;;;;;;;;;;23.00;60.10;;;;;;1539016;76;734;-68
2023/09/18 02:55:27;;;;;;;;;;;23.00;60.20;;;;;;1504072;77;725;-67
2023/09/18 02:57:29;;;;;;;;;;;23.00;60.10;;;;;;1495322;77;1157;-68
2023/09/18 02:59:32;;;;;;;;;;;23.00;60.10;;;;;;1502344;77;1933;-67
2023/09/18 03:01:33;;;;;;;;;;;23.00;60.10;;;;;;1509174;77;880;-67
2023/09/18 03:03:35;;;;;;;;;;;23.00;60.10;;;;;;1528965;76;819;-68
2023/09/18 03:05:37;;;;;;;;;;;23.00;60.10;;;;;;1522979;77;750;-68
2023/09/18 03:07:39;;;;;;;;;;;23.00;60.00;;;;;;1537064;76;1206;-67
2023/09/18 03:09:41;;;;;;;;;;;23.00;60.00;;;;;;1545827;76;678;-67
2023/09/18 03:11:43;;;;;;;;;;;23.00;60.00;;;;;;1504030;77;669;-67
2023/09/18 03:13:46;;;;;;;;;;;23.00;59.90;;;;;;1514114;77;684;-67
2023/09/18 03:15:48;;;;;;;;;;;23.00;59.90;;;;;;1516304;77;806;-68
2023/09/18 03:17:51;;;;;;;;;;;23.00;59.80;;;;;;1512593;78;1108;-65
2023/09/18 03:19:52;;;;;;;;;;;23.00;59.80;;;;;;1529940;76;1881;-68
2023/09/18 03:21:54;;;;;;;;;;;23.00;59.80;;;;;;1535851;76;711;-68
2023/09/18 03:23:57;;;;;;;;;;;23.00;59.80;;;;;;1514446;78;800;-68
2023/09/18 03:25:59;;;;;;;;;;;23.00;59.80;;;;;;1541371;76;761;-68
2023/09/18 03:28:01;;;;;;;;;;;23.00;59.80;;;;;;1506036;77;1139;-67
2023/09/18 03:30:04;;;;;;;;;;;23.00;59.80;;;;;;1497335;77;750;-68
2023/09/18 03:32:06;;;;;;;;;;;23.00;59.80;;;;;;1551605;76;801;-67
2023/09/18 03:34:08;;;;;;;;;;;23.00;59.70;;;;;;1538536;76;692;-68
2023/09/18 03:36:11;;;;;;;;;;;23.00;59.70;;;;;;1506153;77;1528;-68
2023/09/18 03:38:13;;;;;;;;;;;23.00;59.70;;;;;;1526448;76;1175;-68
2023/09/18 03:40:16;;;;;;;;;;;23.00;59.70;;;;;;1529859;76;1920;-68
2023/09/18 03:42:18;;;;;;;;;;;23.00;59.60;;;;;;1495646;77;715;-66
2023/09/18 03:44:21;;;;;;;;;;;23.00;59.60;;;;;;1528555;76;679;-67
2023/09/18 03:46:22;;;;;;;;;;;23.00;59.60;;;;;;1516147;78;745;-66
2023/09/18 03:48:24;;;;;;;;;;;23.00;59.50;;;;;;1533662;76;1100;-66
2023/09/18 03:50:27;;;;;;;;;;;23.00;59.60;;;;;;1498137;77;729;-68
2023/09/18 03:52:29;;;;;;;;;;;23.00;59.50;;;;;;1497266;77;741;-68
2023/09/18 03:54:30;;;;;;;;;;;23.00;59.50;;;;;;1530323;76;691;-67
2023/09/18 03:56:32;;;;;;;;;;;23.00;59.50;;;;;;1532800;76;808;-67
2023/09/18 03:58:34;;;;;;;;;;;23.00;59.40;;;;;;1531797;76;1140;-67
2023/09/18 04:00:36;;;;;;;;;;;22.90;59.40;;;;;;1537733;76;1943;-67
2023/09/18 04:02:38;;;;;;;;;;;22.90;59.30;;;;;;1505683;77;790;-67
2023/09/18 04:04:40;;;;;;;;;;;23.00;59.40;;;;;;1530083;76;816;-67
2023/09/18 04:06:42;;;;;;;;;;;23.00;59.40;;;;;;1531068;76;806;-68
2023/09/18 04:08:44;;;;;;;;;;;23.00;59.40;;;;;;1537159;76;1197;-66
2023/09/18 04:10:46;;;;;;;;;;;23.00;59.30;;;;;;1505707;77;742;-68
2023/09/18 04:12:50;;;;;;;;;;;23.00;59.30;;;;;;1503301;77;629;-67
2023/09/18 04:14:52;;;;;;;;;;;22.90;59.30;;;;;;1563202;74;795;-67
2023/09/18 04:16:54;;;;;;;;;;;23.00;59.30;;;;;;1564494;74;737;-66
2023/09/18 04:18:55;;;;;;;;;;;23.00;59.20;;;;;;1569975;74;1110;-66
2023/09/18 04:20:57;;;;;;;;;;;22.90;59.20;;;;;;1576063;74;827;-68
2023/09/18 04:23:18;;;;;;;;;;;23.00;59.20;;;;;;1566197;74;750;-67
2023/09/18 04:25:21;;;;;;;;;;;23.00;59.20;;;;;;1564801;74;1020;-68
2023/09/18 04:27:22;;;;;;;;;;;22.90;58.90;;;;;;1553134;74;1149;-66
2023/09/18 04:29:24;;;;;;;;;;;22.90;58.80;;;;;;1569348;74;729;-68
2023/09/18 04:31:27;;;;;;;;;;;23.00;58.80;;;;;;1567434;74;727;-68
2023/09/18 04:33:29;;;;;;;;;;;23.00;58.80;;;;;;1567444;74;1628;-67
2023/09/18 04:35:31;;;;;;;;;;;23.00;59.10;;;;;;1570299;74;698;-66
2023/09/18 04:37:35;;;;;;;;;;;23.00;59.10;;;;;;1570475;74;1158;-67
2023/09/18 04:39:37;;;;;;;;;;;22.90;58.80;;;;;;1564794;74;1951;-67
2023/09/18 04:41:39;;;;;;;;;;;22.90;58.80;;;;;;1567075;74;720;-67
2023/09/18 04:43:42;;;;;;;;;;;22.90;58.70;;;;;;1569151;74;814;-68
2023/09/18 04:45:45;;;;;;;;;;;23.00;58.70;;;;;;1567490;74;761;-66
2023/09/18 04:47:46;;;;;;;;;;;22.90;58.70;;;;;;1568926;74;1114;-68
2023/09/18 04:49:49;;;;;;;;;;;23.00;58.70;;;;;;1570138;74;665;-68
2023/09/18 04:51:51;;;;;;;;;;;23.00;58.20;;;;;;1571080;74;790;-68
2023/09/18 04:53:54;;;;;;;;;;;22.90;58.40;;;;;;1569379;74;754;-68
2023/09/18 04:55:56;;;;;;;;;;;23.00;58.40;;;;;;1569999;74;740;-68
2023/09/18 04:57:59;;;;;;;;;;;22.90;58.40;;;;;;1568390;74;1137;-67
2023/09/18 05:00:01;;;;;;;;;;;22.90;58.30;;;;;;1566540;74;1915;-68
2023/09/18 05:02:04;;;;;;;;;;;23.00;58.40;;;;;;1576741;74;950;-67
2023/09/18 05:04:06;;;;;;;;;;;22.90;58.40;;;;;;1563636;74;748;-67
2023/09/18 05:06:08;;;;;;;;;;;22.90;58.30;;;;;;1570216;74;791;-68
2023/09/18 05:08:10;;;;;;;;;;;22.90;58.40;;;;;;1568407;74;1162;-67
2023/09/18 05:10:12;;;;;;;;;;;22.90;58.30;;;;;;1569467;74;763;-68
2023/09/18 05:12:15;;;;;;;;;;;22.90;58.30;;;;;;1572676;74;813;-67
2023/09/18 05:14:17;;;;;;;;;;;22.90;58.40;;;;;;1562915;74;810;-67
2023/09/18 05:16:19;;;;;;;;;;;22.90;58.40;;;;;;1564338;74;731;-67
2023/09/18 05:18:21;;;;;;;;;;;22.90;58.30;;;;;;1561872;74;1150;-67
2023/09/18 05:20:28;;;;;;;;;;;22.90;58.40;;;;;;1569968;74;1899;-68
2023/09/18 05:22:28;;;;;;;;;;;22.90;58.30;;;;;;1559895;74;1237;-68
2023/09/18 05:24:30;;;;;;;;;;;22.90;58.30;;;;;;1567070;74;789;-67
2023/09/18 05:26:33;;;;;;;;;;;22.90;58.30;;;;;;1564240;74;776;-67
2023/09/18 05:28:35;;;;;;;;;;;23.00;58.20;;;;;;1564423;74;1521;-67
2023/09/18 05:30:40;;;;;;;;;;;23.00;58.20;;;;;;1564845;74;747;-67
2023/09/18 05:32:43;;;;;;;;;;;22.90;58.30;;;;;;1564674;74;887;-68
2023/09/18 05:34:46;;;;;;;;;;;23.00;58.00;;;;;;1564806;74;810;-67
2023/09/18 05:36:48;;;;;;;;;;;23.00;58.20;;;;;;1558511;74;852;-67
2023/09/18 05:38:50;;;;;;;;;;;22.90;58.00;;;;;;1560122;74;1134;-67
2023/09/18 05:40:52;;;;;;;;;;;22.90;57.90;;;;;;1563580;74;1934;-68
2023/09/18 05:42:54;;;;;;;;;;;22.90;58.00;;;;;;1563054;74;697;-67
2023/09/18 05:44:56;;;;;;;;;;;23.00;57.90;;;;;;1569766;74;706;-68
2023/09/18 05:46:58;;;;;;;;;;;22.90;57.90;;;;;;1564293;74;784;-67
2023/09/18 05:49:00;;;;;;;;;;;22.90;57.80;;;;;;1569800;74;1074;-67
2023/09/18 05:51:03;;;;;;;;;;;22.90;57.90;;;;;;1568390;74;781;-68
2023/09/18 05:53:05;;;;;;;;;;;22.90;57.90;;;;;;1570112;74;724;-69
2023/09/18 05:55:07;;;;;;;;;;;22.90;57.80;;;;;;1567815;74;744;-68
2023/09/18 05:57:09;;;;;;;;;;;22.90;57.80;;;;;;1562344;74;1157;-67
2023/09/18 05:59:11;;;;;;;;;;;22.90;58.10;;;;;;1567155;74;734;-67
2023/09/18 06:01:13;;;;;;;;;;;22.90;58.10;;;;;;1569014;74;1934;-67
2023/09/18 06:03:18;;;;;;;;;;;22.90;58.00;;;;;;1563896;74;636;-67
2023/09/18 06:05:21;;;;;;;;;;;23.00;58.10;;;;;;1563129;74;1545;-67
2023/09/18 06:07:22;;;;;;;;;;;22.90;58.10;;;;;;1569120;74;1637;-68
2023/09/18 06:09:24;;;;;;;;;;;22.90;58.10;;;;;;1568954;74;761;-68
2023/09/18 06:11:26;;;;;;;;;;;22.90;58.10;;;;;;1568195;74;724;-67
2023/09/18 06:13:28;;;;;;;;;;;22.90;58.20;;;;;;1569273;74;695;-67
2023/09/18 06:15:30;;;;;;;;;;;23.00;58.20;;;;;;1569921;74;773;-68
2023/09/18 06:17:32;;;;;;;;;;;22.90;58.20;;;;;;1569301;74;1159;-68
2023/09/18 06:19:35;;;;;;;;;;;22.90;58.20;;;;;;1570225;74;862;-69
2023/09/18 06:21:36;;;;;;;;;;;22.90;58.20;;;;;;1564662;74;1904;-64
2023/09/18 06:23:38;;;;;;;;;;;22.90;58.30;;;;;;1562260;74;706;-67
2023/09/18 06:25:40;;;;;;;;;;;22.90;58.30;;;;;;1565616;74;1422;-67
2023/09/18 06:27:43;;;;;;;;;;;22.90;58.40;;;;;;1566926;74;1143;-68
2023/09/18 06:29:45;;;;;;;;;;;23.00;58.40;;;;;;1566404;74;768;-67
2023/09/18 06:31:47;;;;;;;;;;;23.00;58.40;;;;;;1569604;74;718;-67
2023/09/18 06:33:49;;;;;;;;;;;23.00;58.50;;;;;;1574475;74;701;-68
2023/09/18 06:35:52;;;;;;;;;;;22.90;58.10;;;;;;1569964;74;783;-68
2023/09/18 06:37:58;;;;;;;;;;;23.00;58.10;;;;;;1566186;74;1121;-67
2023/09/18 06:39:57;;;;;;;;;;;23.00;58.10;;;;;;1569734;74;2093;-67
2023/09/18 06:41:59;;;;;;;;;;;23.00;58.00;;;;;;1567732;74;727;-67
2023/09/18 06:44:03;;;;;;;;;;;22.90;57.90;;;;;;1568265;74;748;-68
2023/09/18 06:46:06;;;;;;;;;;;22.90;57.60;;;;;;1569160;74;729;-65
2023/09/18 06:48:08;;;;;;;;;;;22.90;57.40;;;;;;1570501;74;1112;-67
2023/09/18 06:50:12;;;;;;;;;;;22.90;56.80;;;;;;1570197;74;726;-68
2023/09/18 06:52:13;;;;;;;;;;;22.90;56.50;;;;;;1564760;74;796;-67
2023/09/18 06:54:15;;;;;;;;;;;22.90;56.30;;;;;;1562644;74;767;-67
2023/09/18 06:56:17;;;;;;;;;;;22.90;56.20;;;;;;1569103;74;797;-68
2023/09/18 06:58:19;;;;;;;;;;;22.90;56.10;;;;;;1570013;74;1147;-67
2023/09/18 07:00:21;;;;;;;;;;;22.90;56.10;;;;;;1567097;74;1936;-68
2023/09/18 07:02:23;;;;;;;;;;;22.90;56.10;;;;;;1569805;74;830;-67
2023/09/18 07:04:25;;;;;;;;;;;22.90;56.10;;;;;;1567327;74;718;-67
2023/09/18 07:06:27;;;;;;;;;;;22.90;56.10;;;;;;1563297;74;852;-68
2023/09/18 07:08:28;;;;;;;;;;;22.90;56.20;;;;;;1575015;74;1173;-66
2023/09/18 07:10:30;;;;;;;;;;;22.90;56.30;;;;;;1567680;74;746;-68
2023/09/18 07:12:32;;;;;;;;;;;22.90;56.30;;;;;;1568652;74;810;-67
2023/09/18 07:14:34;;;;;;;;;;;22.90;56.40;;;;;;1568493;74;863;-68
2023/09/18 07:16:36;;;;;;;;;;;23.00;56.40;;;;;;1560370;74;737;-68
2023/09/18 07:18:38;;;;;;;;;;;22.90;56.50;;;;;;1564231;74;1173;-67
2023/09/18 07:20:41;;;;;;;;;;;22.90;56.50;;;;;;1567354;74;1926;-67
2023/09/18 07:22:47;;;;;;;;;;;22.90;56.50;;;;;;1559615;74;1825;-68
2023/09/18 07:24:49;;;;;;;;;;;22.90;56.50;;;;;;1563007;74;816;-67
2023/09/18 07:26:50;;;;;;;;;;;22.90;56.50;;;;;;1559119;74;696;-67
2023/09/18 07:28:52;;;;;;;;;;;22.90;56.50;;;;;;1562337;74;1101;-66
2023/09/18 07:30:54;;;;;;;;;;;22.90;56.50;;;;;;1570514;74;769;-67
2023/09/18 07:33:00;;;;;;;;;;;22.90;56.50;;;;;;1567305;74;763;-66
2023/09/18 07:35:04;;;;;;;;;;;22.90;56.60;;;;;;1560806;74;709;-67
2023/09/18 07:37:05;;;;;;;;;;;22.90;56.70;;;;;;1570089;74;1641;-67
2023/09/18 07:39:07;;;;;;;;;;;22.90;56.70;;;;;;1567317;74;1164;-68
2023/09/18 07:41:10;;;;;;;;;;;22.90;56.80;;;;;;1565821;75;1934;-67
2023/09/18 07:43:12;;;;;;;;;;;22.90;56.80;;;;;;1571932;74;709;-68
2023/09/18 07:45:14;;;;;;;;;;;23.00;56.80;;;;;;1566087;74;757;-69
2023/09/18 07:47:15;;;;;;;;;;;22.90;56.90;;;;;;1566732;74;1178;-68
2023/09/18 07:49:17;;;;;;;;;;;22.90;57.00;;;;;;1570024;74;774;-69
2023/09/18 07:51:19;;;;;;;;;;;22.90;57.00;;;;;;1565340;74;723;-68
2023/09/18 07:53:21;;;;;;;;;;;22.90;57.00;;;;;;1556877;74;689;-68
2023/09/18 07:55:23;;;;;;;;;;;22.90;57.10;;;;;;1564257;74;811;-67
2023/09/18 07:57:27;;;;;;;;;;;22.90;57.10;;;;;;1569866;74;1142;-68
2023/09/18 07:59:30;;;;;;;;;;;22.90;57.10;;;;;;1565102;74;1684;-68
2023/09/18 08:01:32;;;;;;;;;;;22.90;57.20;;;;;;1567796;74;1931;-68
2023/09/18 08:03:33;;;;;;;;;;;22.90;57.20;;;;;;1531379;76;728;-67
2023/09/18 08:05:35;;;;;;;;;;;22.90;57.20;;;;;;1523193;76;718;-68
2023/09/18 08:07:37;;;;;;;;;;;22.90;57.40;;;;;;1506173;77;1135;-68
2023/09/18 08:09:39;;;;;;;;;;;22.90;57.40;;;;;;1498838;77;688;-68
2023/09/18 08:11:42;;;;;;;;;;;22.90;57.60;;;;;;1564451;74;721;-69
2023/09/18 08:13:44;;;;;;;;;;;23.00;57.60;;;;;;1569296;74;795;-68
2023/09/18 08:15:46;;;;;;;;;;;22.90;57.70;;;;;;1567057;74;786;-69
2023/09/18 08:17:49;;;;;;;;;;;23.00;57.60;;;;;;1566134;74;1308;-67
2023/09/18 08:19:52;;;;;;;;;;;23.00;57.70;;;;;;1570498;74;693;-68
2023/09/18 08:21:54;;;;;;;;;;;23.00;57.70;;;;;;1570958;74;1899;-68
2023/09/18 08:23:58;;;;;;;;;;;23.00;57.80;;;;;;1569388;74;776;-68
2023/09/18 08:26:01;;;;;;;;;;;22.90;57.70;;;;;;1562662;74;721;-67
2023/09/18 08:28:04;;;;;;;;;;;23.00;57.80;;;;;;1564709;74;1190;-68
2023/09/18 08:30:06;;;;;;;;;;;23.00;57.90;;;;;;1562119;74;781;-68
2023/09/18 08:32:08;;;;;;;;;;;23.00;58.00;;;;;;1562499;74;651;-67
2023/09/18 08:34:10;;;;;;;;;;;23.00;58.00;;;;;;1568472;74;813;-66
2023/09/18 08:36:12;;;;;;;;;;;23.00;58.10;;;;;;1558156;74;743;-68
2023/09/18 08:38:17;;;;;;;;;;;23.00;58.10;;;;;;1574904;74;1156;-68
2023/09/18 08:40:19;;;;;;;;;;;23.00;58.20;;;;;;1572525;74;745;-68
2023/09/18 08:42:21;;;;;;;;;;;23.00;58.30;;;;;;1572744;74;1941;-65
2023/09/18 08:44:23;;;;;;;;;;;23.00;58.40;;;;;;1556788;74;827;-68
2023/09/18 08:46:25;;;;;;;;;;;23.00;58.50;;;;;;1562073;74;680;-67
2023/09/18 08:48:34;;;;;;;;;;;23.00;58.60;;;;;;1568259;74;1145;-68
2023/09/18 08:50:31;;;;;;;;;;;23.10;58.80;;;;;;1555744;74;1698;-68
2023/09/18 08:52:33;;;;;;;;;;;23.00;58.60;;;;;;1563750;74;797;-67
2023/09/18 08:54:35;;;;;;;;;;;23.00;58.60;;;;;;1570355;74;682;-68
2023/09/18 08:56:37;;;;;;;;;;;23.00;58.70;;;;;;1563315;74;681;-68
2023/09/18 08:58:42;;;;;;;;;;;23.00;58.80;;;;;;1562820;74;1138;-68
2023/09/18 09:00:43;;;;;;;;;;;23.00;58.80;;;;;;1569945;74;1932;-67
2023/09/18 09:02:45;;;;;;;;;;;23.00;59.10;;;;;;1571443;74;728;-67
2023/09/18 09:04:47;;;;;;;;;;;23.00;58.70;;;;;;1566281;74;657;-67
2023/09/18 09:06:49;;;;;;;;;;;23.00;58.70;;;;;;1576721;74;722;-68
2023/09/18 09:08:51;;;;;;;;;;;23.00;58.90;;;;;;1568615;74;1114;-69
2023/09/18 09:10:53;;;;;;;;;;;23.00;59.10;;;;;;1567768;74;697;-69
2023/09/18 09:12:55;;;;;;;;;;;23.00;58.80;;;;;;1574600;74;754;-67
2023/09/18 09:15:02;;;;;;;;;;;23.00;58.70;;;;;;1566522;74;1694;-68
2023/09/18 09:17:04;;;;;;;;;;;23.10;58.80;;;;;;1571331;74;2597;-68
2023/09/18 09:19:06;;;;;;;;;;;23.00;58.40;;;;;;1568257;74;1139;-68
2023/09/18 09:21:08;;;;;;;;;;;23.10;58.50;;;;;;1559291;74;1930;-69
2023/09/18 09:23:10;;;;;;;;;;;23.00;58.30;;;;;;1568937;74;736;-66
2023/09/18 09:25:17;;;;;;;;;;;23.00;58.30;;;;;;1559659;74;723;-69
2023/09/18 09:27:19;;;;;;;;;;;23.00;58.40;;;;;;1559859;74;1163;-67
2023/09/18 09:29:21;;;;;;;;;;;23.10;58.50;;;;;;1562036;74;693;-68
2023/09/18 09:31:29;;;;;;;;;;;23.00;58.40;;;;;;1569670;74;798;-66
2023/09/18 09:33:30;;;;;;;;;;;23.10;58.50;;;;;;1564146;74;762;-69
2023/09/18 09:35:33;;;;;;;;;;;23.10;58.50;;;;;;1566336;74;688;-68
2023/09/18 09:37:35;;;;;;;;;;;23.00;58.40;;;;;;1562515;74;1181;-68
2023/09/18 09:39:51;;;;;;;;;;;23.00;58.40;;;;;;1570160;74;621;-68
2023/09/18 09:41:53;;;;;;;;;;;23.00;58.40;;;;;;1568482;74;1930;-67
2023/09/18 09:43:57;;;;;;;;;;;23.10;58.60;;;;;;1577223;74;734;-68
2023/09/18 09:46:02;;;;;;;;;;;23.00;58.50;;;;;;1565787;74;780;-68
2023/09/18 09:48:05;;;;;;;;;;;23.10;58.60;;;;;;1572310;74;1144;-67
2023/09/18 09:50:15;;;;;;;;;;;23.10;58.60;;;;;;1569195;74;757;-68
2023/09/18 09:52:22;;;;;;;;;;;23.10;58.60;;;;;;1534891;76;785;-68
2023/09/18 09:54:39;;;;;;;;;;;23.10;58.60;;;;;;1552960;74;740;-68
2023/09/18 09:56:43;;;;;;;;;;;23.00;58.50;;;;;;1568757;74;1774;-68
2023/09/18 09:58:45;;;;;;;;;;;23.10;58.60;;;;;;1567901;74;1079;-68
2023/09/18 10:00:49;;;;;;;;;;;23.00;58.60;;;;;;1568799;74;540;-68
2023/09/18 10:02:51;;;;;;;;;;;23.00;58.60;;;;;;1575881;74;1935;-68
2023/09/18 10:04:53;;;;;;;;;;;23.10;58.70;;;;;;1567363;74;758;-69
2023/09/18 10:06:59;;;;;;;;;;;23.10;58.90;;;;;;1566262;74;747;-68
2023/09/18 10:09:10;;;;;;;;;;;23.10;58.80;;;;;;1563323;74;1777;-67
2023/09/18 10:11:11;;;;;;;;;;;23.00;58.80;;;;;;1575082;74;1586;-69
2023/09/18 10:13:18;;;;;;;;;;;23.10;58.90;;;;;;1569216;74;1650;-68
2023/09/18 10:15:20;;;;;;;;;;;23.10;58.90;;;;;;1570091;74;712;-67
2023/09/18 10:17:22;;;;;;;;;;;23.10;58.90;;;;;;1569252;74;1126;-68
2023/09/18 10:19:33;;;;;;;;;;;23.10;58.90;;;;;;1528271;76;582;-68
2023/09/18 10:21:39;;;;;;;;;;;23.10;58.90;;;;;;1501198;77;1917;-68
2023/09/18 10:23:44;;;;;;;;;;;23.10;58.80;;;;;;1495788;77;740;-69
2023/09/18 10:25:46;;;;;;;;;;;23.00;58.70;;;;;;1565270;74;722;-67
2023/09/18 10:28:01;;;;;;;;;;;23.10;58.80;;;;;;1562087;74;1168;-68
2023/09/18 10:30:04;;;;;;;;;;;23.10;58.80;;;;;;1565415;74;1678;-68
2023/09/18 10:32:07;;;;;;;;;;;23.10;58.70;;;;;;1567894;74;1774;-68
2023/09/18 10:34:09;;;;;;;;;;;23.00;58.60;;;;;;1565927;74;767;-68
2023/09/18 10:36:11;;;;;;;;;;;23.10;58.60;;;;;;1563599;74;833;-68
2023/09/18 10:38:13;;;;;;;;;;;23.00;58.50;;;;;;1576573;74;1161;-69
2023/09/18 10:40:15;;;;;;;;;;;23.10;58.60;;;;;;1563326;74;825;-69
2023/09/18 10:42:17;;;;;;;;;;;23.00;58.50;;;;;;1565416;74;1938;-68
2023/09/18 10:44:19;;;;;;;;;;;23.10;58.60;;;;;;1569226;74;706;-66
2023/09/18 10:46:21;;;;;;;;;;;23.10;58.60;;;;;;1566262;74;776;-68
2023/09/18 10:48:23;;;;;;;;;;;23.10;58.60;;;;;;1561002;74;1122;-68
2023/09/18 10:50:26;;;;;;;;;;;23.00;58.40;;;;;;1554653;74;658;-68
2023/09/18 10:52:28;;;;;;;;;;;23.00;58.40;;;;;;1562753;74;1425;-69
2023/09/18 10:54:30;;;;;;;;;;;23.10;58.60;;;;;;1556417;74;748;-69
2023/09/18 10:56:32;;;;;;;;;;;23.00;58.60;;;;;;1569584;74;747;-67
2023/09/18 10:58:38;;;;;;;;;;;23.10;58.60;;;;;;1568343;74;1093;-67
2023/09/18 11:00:41;;;;;;;;;;;23.00;58.50;;;;;;1570064;74;716;-68
2023/09/18 11:02:43;;;;;;;;;;;23.10;58.80;;;;;;1535780;76;1918;-68
2023/09/18 11:04:45;;;;;;;;;;;23.10;58.80;;;;;;1554149;74;745;-67
2023/09/18 11:06:59;;;;;;;;;;;23.10;58.80;;;;;;1569183;74;1545;-68
2023/09/18 11:09:04;;;;;;;;;;;23.00;58.60;;;;;;1569215;74;1116;-68
2023/09/18 11:11:14;;;;;;;;;;;23.10;59.20;;;;;;1564892;74;973;-68
2023/09/18 11:13:15;;;;;;;;;;;23.00;59.30;;;;;;1557466;74;1666;-68
2023/09/18 11:15:27;;;;;;;;;;;23.00;59.30;;;;;;1536456;76;1203;-68
2023/09/18 11:17:30;;;;;;;;;;;23.00;59.40;;;;;;1536297;76;1156;-68
2023/09/18 11:19:32;;;;;;;;;;;23.00;59.60;;;;;;1570591;74;714;-68
2023/09/18 11:21:34;;;;;;;;;;;23.00;59.80;;;;;;1569567;74;1934;-69
2023/09/18 11:23:42;;;;;;;;;;;22.90;60.00;;;;;;1561589;74;739;-67
2023/09/18 11:25:41;;;;;;;;;;;23.00;60.10;;;;;;1555693;74;1613;-68
2023/09/18 11:27:58;;;;;;;;;;;23.00;60.30;;;;;;1563324;74;1188;-68
2023/09/18 11:30:00;;;;;;;;;;;23.00;60.40;;;;;;1564721;74;681;-68
2023/09/18 11:32:03;;;;;;;;;;;23.00;60.60;;;;;;1564596;74;800;-69
2023/09/18 11:34:06;;;;;;;;;;;23.00;60.80;;;;;;1560788;74;826;-68
2023/09/18 11:36:15;;;;;;;;;;;23.00;60.90;;;;;;1566482;74;1788;-68
2023/09/18 11:38:17;;;;;;;;;;;23.00;60.90;;;;;;1547506;74;1645;-67
2023/09/18 11:40:34;;;;;;;;;;;22.90;61.00;;;;;;1568641;74;787;-68
2023/09/18 11:42:35;;;;;;;;;;;23.00;61.20;;;;;;1568170;74;1923;-67
2023/09/18 11:44:41;;;;;;;;;;;23.00;61.50;;;;;;1575207;74;745;-68
2023/09/18 11:46:42;;;;;;;;;;;23.00;61.60;;;;;;1566547;74;1677;-68
2023/09/18 11:48:44;;;;;;;;;;;23.00;61.60;;;;;;1536652;76;1291;-68
2023/09/18 11:50:46;;;;;;;;;;;23.00;61.70;;;;;;1558622;74;807;-66
2023/09/18 11:52:48;;;;;;;;;;;22.90;61.60;;;;;;1555422;74;741;-68
2023/09/18 11:54:50;;;;;;;;;;;23.00;61.60;;;;;;1574312;74;821;-67
2023/09/18 11:56:52;;;;;;;;;;;23.00;61.70;;;;;;1566729;74;699;-68
2023/09/18 11:58:54;;;;;;;;;;;23.00;61.70;;;;;;1565154;74;1079;-68
2023/09/18 12:00:57;;;;;;;;;;;22.90;61.70;;;;;;1569106;74;717;-68
2023/09/18 12:02:59;;;;;;;;;;;23.00;61.60;;;;;;1569513;74;1911;-68
2023/09/18 12:05:03;;;;;;;;;;;22.90;61.60;;;;;;1569265;74;743;-68
2023/09/18 12:07:06;;;;;;;;;;;22.90;61.60;;;;;;1568375;74;2322;-68
2023/09/18 12:09:08;;;;;;;;;;;22.90;61.50;;;;;;1569492;74;1136;-68
2023/09/18 12:11:16;;;;;;;;;;;22.90;61.50;;;;;;1568180;74;692;-68